Time;durP1;ratioP1;P1;durP2;ratioP2;P2;SDS_P1;SDS_P2;PMS_P1;PMS_P2;Temp;Humidity;BMP_temperature;BMP_pressure;BME280_temperature;BME280_humidity;BME280_pressure;Samples;Min_cycle;Max_cycle;Signal;HPM_P1;HPM_P2
2024/02/28 00:02:03;;;;;;;7.30;1.98;;;8.30;99.90;;;;;;5023242;28;20057;-66
2024/02/28 00:04:30;;;;;;;15.73;2.08;;;8.30;99.90;;;;;;5023997;28;20048;-67
2024/02/28 00:06:58;;;;;;;11.18;3.53;;;8.30;99.90;;;;;;5024206;28;20123;-67
2024/02/28 00:09:25;;;;;;;6.43;1.70;;;8.40;99.90;;;;;;5026230;28;20336;-67
2024/02/28 00:11:51;;;;;;;8.57;1.80;;;8.30;99.90;;;;;;5026481;28;20073;-66
2024/02/28 00:14:18;;;;;;;7.65;2.42;;;8.30;99.90;;;;;;5027456;28;20091;-66
2024/02/28 00:16:46;;;;;;;7.15;1.98;;;8.30;99.90;;;;;;5024657;28;20053;-67
2024/02/28 00:19:13;;;;;;;8.98;2.75;;;8.20;99.90;;;;;;5028571;28;20049;-66
2024/02/28 00:21:40;;;;;;;10.70;2.33;;;8.20;99.90;;;;;;5025673;28;20124;-66
2024/02/28 00:24:07;;;;;;;6.25;2.67;;;8.20;99.90;;;;;;5024033;28;20053;-67
2024/02/28 00:26:34;;;;;;;8.50;2.08;;;8.20;99.90;;;;;;5024617;28;20049;-66
2024/02/28 00:29:01;;;;;;;4.97;1.90;;;8.00;99.90;;;;;;5025974;28;20598;-67
2024/02/28 00:31:28;;;;;;;7.03;2.22;;;8.10;99.90;;;;;;5020708;28;20107;-67
2024/02/28 00:33:54;;;;;;;6.90;1.85;;;8.10;99.90;;;;;;5020723;28;20045;-66
2024/02/28 00:36:21;;;;;;;8.07;2.20;;;8.10;99.90;;;;;;5024421;28;20050;-66
2024/02/28 00:38:48;;;;;;;8.70;1.90;;;8.10;99.90;;;;;;5032027;28;20394;-67
2024/02/28 00:41:15;;;;;;;5.13;2.08;;;8.20;99.90;;;;;;5023814;28;20041;-67
2024/02/28 00:43:42;;;;;;;11.15;2.75;;;8.20;99.90;;;;;;5019512;28;20056;-67
2024/02/28 00:46:11;;;;;;;11.43;2.58;;;8.10;99.90;;;;;;5033388;28;20053;-67
2024/02/28 00:48:39;;;;;;;12.23;2.42;;;8.10;99.90;;;;;;5026494;28;20061;-67
2024/02/28 00:51:07;;;;;;;8.82;1.60;;;8.10;99.90;;;;;;5024303;28;20059;-67
2024/02/28 00:53:34;;;;;;;4.22;1.60;;;8.10;99.90;;;;;;5021780;28;20053;-67
2024/02/28 00:56:01;;;;;;;12.25;2.65;;;8.10;99.90;;;;;;5039981;28;20095;-67
2024/02/28 00:58:29;;;;;;;13.15;2.58;;;8.10;99.90;;;;;;5022605;28;20543;-67
2024/02/28 01:00:57;;;;;;;7.65;2.17;;;8.10;99.90;;;;;;5036654;28;20516;-67
2024/02/28 01:03:24;;;;;;;12.43;2.17;;;8.10;99.90;;;;;;5023731;28;20045;-67
2024/02/28 01:05:51;;;;;;;10.85;4.10;;;8.10;99.90;;;;;;5031166;28;20454;-67
2024/02/28 01:08:18;;;;;;;11.75;2.28;;;8.10;99.90;;;;;;5026844;28;20124;-66
2024/02/28 01:10:45;;;;;;;9.13;2.33;;;8.10;99.90;;;;;;5023791;28;20045;-67
2024/02/28 01:13:12;;;;;;;9.32;1.67;;;8.10;99.90;;;;;;5028010;28;20446;-64
2024/02/28 01:15:41;;;;;;;6.53;2.15;;;8.10;99.90;;;;;;5028228;28;20283;-66
2024/02/28 01:18:09;;;;;;;9.52;2.30;;;8.10;99.90;;;;;;5028972;28;20510;-66
2024/02/28 01:20:36;;;;;;;8.55;2.35;;;8.10;99.90;;;;;;5029574;28;20073;-67
2024/02/28 01:23:03;;;;;;;12.90;2.67;;;8.10;99.90;;;;;;5029497;28;20104;-67
2024/02/28 01:25:30;;;;;;;11.43;2.38;;;8.10;99.90;;;;;;5026455;28;20053;-67
2024/02/28 01:27:59;;;;;;;9.45;4.15;;;8.10;99.90;;;;;;5028479;28;20508;-67
2024/02/28 01:30:26;;;;;;;8.77;2.05;;;8.10;99.90;;;;;;5027780;28;20049;-67
2024/02/28 01:32:53;;;;;;;5.32;1.70;;;8.10;99.90;;;;;;5030835;28;20045;-67
2024/02/28 01:35:21;;;;;;;15.57;1.92;;;8.10;99.90;;;;;;5028756;28;20042;-67
2024/02/28 01:37:48;;;;;;;11.40;2.33;;;8.20;99.90;;;;;;5032808;28;20068;-67
2024/02/28 01:40:15;;;;;;;7.60;2.13;;;8.20;99.90;;;;;;5028826;28;20092;-66
2024/02/28 01:42:42;;;;;;;7.28;1.63;;;8.10;99.90;;;;;;5028254;28;20051;-67
2024/02/28 01:45:12;;;;;;;9.55;2.53;;;8.20;99.90;;;;;;5009106;28;20052;-67
2024/02/28 01:47:40;;;;;;;8.02;2.03;;;8.20;99.90;;;;;;5029219;28;20045;-67
2024/02/28 01:50:08;;;;;;;8.32;2.25;;;8.20;99.90;;;;;;5027233;28;20048;-67
2024/02/28 01:52:35;;;;;;;5.13;1.88;;;8.20;99.90;;;;;;5028247;28;20056;-66
2024/02/28 01:55:05;;;;;;;9.20;2.63;;;8.20;99.90;;;;;;5028633;28;20049;-66
2024/02/28 01:57:33;;;;;;;9.63;2.10;;;8.20;99.90;;;;;;5026684;28;20045;-65
2024/02/28 02:00:00;;;;;;;7.18;2.30;;;8.20;99.90;;;;;;5028256;28;20077;-66
2024/02/28 02:02:26;;;;;;;6.43;2.05;;;8.20;99.90;;;;;;5025820;28;20110;-66
2024/02/28 02:04:54;;;;;;;11.70;1.60;;;8.10;99.90;;;;;;5027146;28;20049;-66
2024/02/28 02:07:21;;;;;;;6.30;1.35;;;8.10;99.90;;;;;;5025168;28;20139;-67
2024/02/28 02:09:47;;;;;;;8.57;1.63;;;8.10;99.90;;;;;;5029391;28;20472;-67
2024/02/28 02:12:14;;;;;;;12.20;2.45;;;8.10;99.90;;;;;;5028280;28;20042;-67
2024/02/28 02:14:41;;;;;;;7.07;1.48;;;8.10;99.90;;;;;;5026838;28;20045;-67
2024/02/28 02:17:08;;;;;;;8.07;1.70;;;8.10;99.90;;;;;;5028629;28;20076;-66
2024/02/28 02:19:35;;;;;;;3.65;1.85;;;8.10;99.90;;;;;;5025930;28;20049;-68
2024/02/28 02:22:02;;;;;;;7.38;2.22;;;8.00;99.90;;;;;;5011014;28;20049;-67
2024/02/28 02:24:29;;;;;;;9.85;2.30;;;8.00;99.90;;;;;;5025900;28;20057;-67
2024/02/28 02:26:58;;;;;;;11.15;2.65;;;8.00;99.90;;;;;;5028757;28;20731;-67
2024/02/28 02:29:24;;;;;;;5.82;1.98;;;7.90;99.90;;;;;;5039391;28;20054;-66
2024/02/28 02:31:51;;;;;;;3.05;1.63;;;7.90;99.90;;;;;;5032154;28;20073;-67
2024/02/28 02:34:18;;;;;;;12.10;2.30;;;7.90;99.90;;;;;;5020140;28;20056;-67
2024/02/28 02:36:45;;;;;;;6.70;2.05;;;7.70;99.90;;;;;;5027012;28;20037;-66
2024/02/28 02:39:12;;;;;;;5.35;1.65;;;7.80;99.90;;;;;;5031981;28;20056;-66
2024/02/28 02:41:38;;;;;;;12.65;2.30;;;7.80;99.90;;;;;;5023066;28;20057;-67
2024/02/28 02:44:06;;;;;;;6.38;1.75;;;7.70;99.90;;;;;;5029646;28;20049;-67
2024/02/28 02:46:33;;;;;;;5.47;1.55;;;7.70;99.90;;;;;;5032639;28;20515;-66
2024/02/28 02:49:00;;;;;;;8.95;2.08;;;7.60;99.90;;;;;;5026791;28;20045;-66
2024/02/28 02:51:27;;;;;;;6.45;1.85;;;7.50;99.90;;;;;;5027506;28;20055;-67
2024/02/28 02:53:54;;;;;;;6.82;2.05;;;7.40;99.90;;;;;;5030356;28;20076;-66
2024/02/28 02:56:21;;;;;;;8.15;2.28;;;7.40;99.90;;;;;;5027611;28;20083;-67
2024/02/28 02:58:48;;;;;;;6.38;1.98;;;7.40;99.90;;;;;;5025969;28;20103;-67
2024/02/28 03:01:14;;;;;;;8.23;1.80;;;7.30;99.90;;;;;;5026856;28;20095;-66
2024/02/28 03:03:41;;;;;;;10.45;1.80;;;7.30;99.90;;;;;;5026691;28;20560;-67
2024/02/28 03:06:10;;;;;;;6.53;2.15;;;7.30;99.90;;;;;;5029825;28;20048;-67
2024/02/28 03:08:37;;;;;;;3.63;1.75;;;7.20;99.90;;;;;;5025767;28;20140;-67
2024/02/28 03:11:08;;;;;;;13.57;3.45;;;7.20;99.90;;;;;;5025322;28;20049;-66
2024/02/28 03:13:35;;;;;;;9.18;2.15;;;7.10;99.90;;;;;;5030656;28;20056;-66
2024/02/28 03:16:04;;;;;;;10.52;2.45;;;7.10;99.90;;;;;;5026251;28;20052;-67
2024/02/28 03:18:31;;;;;;;8.50;2.00;;;7.00;99.90;;;;;;5027948;28;20076;-66
2024/02/28 03:20:58;;;;;;;8.10;4.22;;;7.00;99.90;;;;;;5027507;28;20182;-66
2024/02/28 03:23:24;;;;;;;6.97;1.55;;;6.90;99.90;;;;;;5031146;28;20115;-67
2024/02/28 03:25:51;;;;;;;8.93;2.45;;;6.80;99.90;;;;;;5027202;28;20051;-66
2024/02/28 03:28:18;;;;;;;10.82;2.08;;;6.80;99.90;;;;;;5028461;28;20052;-67
2024/02/28 03:30:45;;;;;;;7.32;1.60;;;6.70;99.90;;;;;;5028555;28;20468;-67
2024/02/28 03:33:12;;;;;;;7.65;2.05;;;6.70;99.90;;;;;;5022935;28;20049;-67
2024/02/28 03:35:39;;;;;;;6.97;1.88;;;6.60;99.90;;;;;;5027001;28;20054;-67
2024/02/28 03:38:05;;;;;;;8.60;2.22;;;6.60;99.90;;;;;;5030155;28;20045;-67
2024/02/28 03:40:32;;;;;;;6.10;1.80;;;6.60;99.90;;;;;;5022647;28;20223;-66
2024/02/28 03:43:00;;;;;;;4.25;1.45;;;6.50;99.90;;;;;;5026807;28;20331;-69
2024/02/28 03:45:30;;;;;;;7.72;2.78;;;6.50;99.90;;;;;;5025924;28;20426;-66
2024/02/28 03:47:57;;;;;;;11.30;2.08;;;6.50;99.90;;;;;;5026563;28;20136;-64
2024/02/28 03:50:24;;;;;;;5.82;1.98;;;6.50;99.90;;;;;;5026692;28;20037;-67
2024/02/28 03:52:51;;;;;;;8.55;3.75;;;6.40;99.90;;;;;;5029619;28;20049;-66
2024/02/28 03:55:17;;;;;;;5.68;1.80;;;6.40;99.90;;;;;;5025973;28;20076;-66
2024/02/28 03:57:47;;;;;;;8.55;2.05;;;6.40;99.90;;;;;;5024328;28;20084;-67
2024/02/28 04:00:15;;;;;;;4.47;1.35;;;6.40;99.90;;;;;;5024456;28;20045;-67
2024/02/28 04:02:42;;;;;;;6.78;2.10;;;6.40;99.90;;;;;;5033417;28;20056;-67
2024/02/28 04:05:09;;;;;;;5.50;2.13;;;6.40;99.90;;;;;;5024149;28;20313;-66
2024/02/28 04:07:36;;;;;;;5.32;1.90;;;6.40;99.90;;;;;;5025972;28;20226;-67
2024/02/28 04:10:05;;;;;;;7.07;1.70;;;6.40;99.90;;;;;;5026078;28;20065;-66
2024/02/28 04:12:32;;;;;;;7.28;1.85;;;6.40;99.90;;;;;;5024026;28;20073;-66
2024/02/28 04:14:59;;;;;;;6.90;1.58;;;6.50;99.90;;;;;;5025770;28;20575;-66
2024/02/28 04:17:26;;;;;;;6.95;1.75;;;6.50;99.90;;;;;;5030245;28;20099;-66
2024/02/28 04:19:53;;;;;;;20.13;2.72;;;6.60;99.90;;;;;;5028175;28;20053;-66
2024/02/28 04:22:20;;;;;;;5.75;1.85;;;6.70;99.90;;;;;;5018972;28;20072;-66
2024/02/28 04:24:47;;;;;;;6.05;2.00;;;6.70;99.90;;;;;;5023625;28;20543;-67
2024/02/28 04:27:14;;;;;;;5.63;1.88;;;6.80;99.90;;;;;;5025488;28;20061;-67
2024/02/28 04:29:41;;;;;;;7.63;2.15;;;6.80;99.90;;;;;;5025266;28;20080;-66
2024/02/28 04:32:07;;;;;;;10.35;2.58;;;6.90;99.90;;;;;;5025576;28;20451;-67
2024/02/28 04:34:36;;;;;;;9.00;2.35;;;6.90;99.90;;;;;;5025415;28;20056;-66
2024/02/28 04:37:03;;;;;;;6.53;1.92;;;6.90;99.90;;;;;;5023240;28;20099;-65
2024/02/28 04:39:30;;;;;;;4.82;1.83;;;7.00;99.90;;;;;;5035682;28;20052;-65
2024/02/28 04:41:58;;;;;;;8.00;2.70;;;6.90;99.90;;;;;;5028107;28;20038;-65
2024/02/28 04:44:25;;;;;;;7.47;2.85;;;6.90;99.90;;;;;;5015776;28;20049;-66
2024/02/28 04:46:52;;;;;;;17.88;2.95;;;7.00;99.90;;;;;;5023515;28;20045;-66
2024/02/28 04:49:19;;;;;;;10.45;2.63;;;6.90;99.90;;;;;;5024035;28;20049;-66
2024/02/28 04:51:46;;;;;;;5.93;2.30;;;6.90;99.90;;;;;;5024690;28;20053;-66
2024/02/28 04:54:12;;;;;;;9.80;3.13;;;6.90;99.90;;;;;;5025192;28;20227;-66
2024/02/28 04:56:41;;;;;;;10.25;3.00;;;6.90;99.90;;;;;;5026024;28;20045;-65
2024/02/28 04:59:16;;;;;;;7.28;3.00;;;6.90;99.90;;;;;;5021210;28;20496;-67
2024/02/28 05:01:45;;;;;;;6.85;2.67;;;6.90;99.90;;;;;;5021994;28;20492;-66
2024/02/28 05:04:12;;;;;;;16.92;7.35;;;6.90;99.90;;;;;;5022789;28;20563;-66
2024/02/28 05:06:39;;;;;;;6.47;2.85;;;6.90;99.90;;;;;;5023380;28;20049;-66
2024/02/28 05:09:06;;;;;;;7.68;2.95;;;6.90;99.90;;;;;;5024224;28;20536;-66
2024/02/28 05:11:33;;;;;;;9.93;3.20;;;6.90;99.90;;;;;;5024845;28;20480;-65
2024/02/28 05:14:00;;;;;;;11.18;4.07;;;7.00;99.90;;;;;;5025722;28;20061;-67
2024/02/28 05:16:27;;;;;;;9.32;3.60;;;7.00;99.90;;;;;;5028547;28;20124;-67
2024/02/28 05:18:54;;;;;;;13.25;3.78;;;7.00;99.90;;;;;;5026532;28;20180;-65
2024/02/28 05:21:21;;;;;;;7.90;3.30;;;7.00;99.90;;;;;;5024146;28;20131;-66
2024/02/28 05:23:48;;;;;;;7.25;3.10;;;7.00;99.90;;;;;;5024346;28;20078;-66
2024/02/28 05:26:15;;;;;;;8.02;3.47;;;7.00;99.90;;;;;;5024368;28;20119;-67
2024/02/28 05:28:42;;;;;;;12.13;3.30;;;7.10;99.90;;;;;;5028579;28;20049;-66
2024/02/28 05:31:25;;;;;;;7.95;3.72;;;7.10;99.90;;;;;;5030639;28;20124;-66
2024/02/28 05:33:56;;;;;;;6.20;3.40;;;7.10;99.90;;;;;;5031366;28;20053;-66
2024/02/28 05:36:24;;;;;;;8.48;3.42;;;7.10;99.90;;;;;;5023444;28;20629;-66
2024/02/28 05:38:51;;;;;;;9.85;4.07;;;7.20;99.90;;;;;;5025198;28;20052;-64
2024/02/28 05:41:18;;;;;;;9.98;3.53;;;7.20;99.90;;;;;;5028078;28;20095;-66
2024/02/28 05:43:48;;;;;;;9.30;3.80;;;7.20;99.90;;;;;;5033519;28;20045;-66
2024/02/28 05:46:15;;;;;;;5.18;3.45;;;7.20;99.90;;;;;;5027175;28;20065;-67
2024/02/28 05:48:43;;;;;;;14.32;4.18;;;7.30;99.90;;;;;;5023422;28;20049;-65
2024/02/28 05:51:13;;;;;;;7.55;3.13;;;7.30;99.90;;;;;;5019903;28;20044;-67
2024/02/28 05:53:40;;;;;;;10.55;3.67;;;7.30;99.90;;;;;;5035793;28;20133;-67
2024/02/28 05:56:13;;;;;;;13.68;3.83;;;7.30;99.90;;;;;;5037042;28;20111;-68
2024/02/28 05:58:44;;;;;;;14.07;4.20;;;7.40;99.90;;;;;;5025671;28;20132;-66
2024/02/28 06:01:11;;;;;;;9.02;4.10;;;7.30;99.90;;;;;;5026855;28;20341;-66
2024/02/28 06:03:38;;;;;;;6.43;3.90;;;7.30;99.90;;;;;;5028467;28;20077;-66
2024/02/28 06:06:05;;;;;;;6.57;3.05;;;7.30;99.90;;;;;;5028349;28;20263;-67
2024/02/28 06:08:33;;;;;;;9.02;3.83;;;7.40;99.90;;;;;;5027932;28;20056;-67
2024/02/28 06:11:00;;;;;;;8.82;3.50;;;7.30;99.90;;;;;;5029720;28;20511;-66
2024/02/28 06:13:28;;;;;;;7.68;4.22;;;7.30;99.90;;;;;;5026558;28;20050;-67
2024/02/28 06:15:56;;;;;;;6.35;4.28;;;7.30;99.90;;;;;;5020833;28;20041;-66
2024/02/28 06:18:33;;;;;;;10.45;4.13;;;7.30;99.90;;;;;;5028777;28;20041;-66
2024/02/28 06:21:00;;;;;;;13.23;6.90;;;7.30;99.90;;;;;;5028906;28;20079;-65
2024/02/28 06:23:28;;;;;;;9.20;4.18;;;7.30;99.90;;;;;;5029328;28;20233;-65
2024/02/28 06:25:56;;;;;;;10.85;3.17;;;7.30;99.90;;;;;;5029487;28;20152;-67
2024/02/28 06:28:24;;;;;;;8.65;3.75;;;7.30;99.90;;;;;;5025517;28;20050;-66
2024/02/28 06:30:51;;;;;;;8.80;3.45;;;7.40;99.90;;;;;;5030975;28;20060;-66
2024/02/28 06:33:18;;;;;;;10.13;4.28;;;7.40;99.90;;;;;;5029065;28;20061;-66
2024/02/28 06:35:45;;;;;;;9.48;4.18;;;7.40;99.90;;;;;;5028443;28;20637;-66
2024/02/28 06:38:12;;;;;;;7.13;3.38;;;7.40;99.90;;;;;;5025477;28;20037;-67
2024/02/28 06:40:39;;;;;;;10.88;4.35;;;7.40;99.90;;;;;;5025230;28;20332;-66
2024/02/28 06:43:06;;;;;;;7.35;4.47;;;7.40;99.90;;;;;;5022296;28;20046;-66
2024/02/28 06:45:33;;;;;;;10.68;3.60;;;7.50;99.90;;;;;;5032303;28;20493;-67
2024/02/28 06:48:00;;;;;;;6.82;4.10;;;7.50;99.90;;;;;;5031657;28;20051;-67
2024/02/28 06:50:27;;;;;;;6.75;4.45;;;7.50;99.90;;;;;;5034717;28;20053;-67
2024/02/28 06:52:54;;;;;;;8.38;4.50;;;7.50;99.90;;;;;;5030035;28;20110;-66
2024/02/28 06:55:21;;;;;;;9.70;3.97;;;7.60;99.90;;;;;;5029332;28;20274;-66
2024/02/28 06:57:48;;;;;;;10.00;4.15;;;7.60;99.90;;;;;;5036103;28;20496;-66
2024/02/28 07:00:15;;;;;;;14.70;5.72;;;7.60;99.90;;;;;;5026359;28;20053;-66
2024/02/28 07:02:43;;;;;;;22.92;6.05;;;7.60;99.90;;;;;;5029384;28;20049;-67
2024/02/28 07:05:10;;;;;;;10.18;5.82;;;7.60;99.90;;;;;;5030018;28;20052;-66
2024/02/28 07:07:37;;;;;;;12.27;5.93;;;7.60;99.90;;;;;;5028485;28;20046;-66
2024/02/28 07:10:04;;;;;;;10.20;5.05;;;7.60;99.90;;;;;;5029020;28;20049;-67
2024/02/28 07:12:31;;;;;;;7.53;5.05;;;7.60;99.90;;;;;;5035300;28;20132;-65
2024/02/28 07:14:58;;;;;;;9.43;4.65;;;7.60;99.90;;;;;;5026594;28;20127;-66
2024/02/28 07:17:25;;;;;;;8.60;4.95;;;7.60;99.90;;;;;;5026170;28;20037;-66
2024/02/28 07:19:52;;;;;;;7.45;4.53;;;7.60;99.90;;;;;;5027025;28;20409;-67
2024/02/28 07:22:19;;;;;;;9.55;4.43;;;7.50;99.90;;;;;;5031645;28;20053;-66
2024/02/28 07:24:46;;;;;;;11.30;4.47;;;7.50;99.90;;;;;;5032280;28;20060;-67
2024/02/28 07:27:13;;;;;;;8.70;4.25;;;7.40;99.90;;;;;;5030342;28;20042;-67
2024/02/28 07:29:39;;;;;;;10.43;4.00;;;7.40;99.90;;;;;;5024845;28;20057;-67
2024/02/28 07:32:06;;;;;;;13.18;4.50;;;7.40;99.90;;;;;;4679168;28;10000659;-67
2024/02/28 07:34:33;;;;;;;6.38;4.43;;;7.40;99.90;;;;;;5024615;28;20459;-66
2024/02/28 07:37:00;;;;;;;8.75;5.00;;;7.40;99.90;;;;;;5024358;28;20037;-66
2024/02/28 07:39:27;;;;;;;9.75;4.30;;;7.40;99.90;;;;;;5020018;28;20524;-65
2024/02/28 07:41:54;;;;;;;9.45;5.15;;;7.50;99.90;;;;;;5024207;28;20079;-64
2024/02/28 07:44:22;;;;;;;6.57;3.40;;;7.50;99.90;;;;;;5005017;28;20052;-64
2024/02/28 07:46:50;;;;;;;4.80;3.28;;;7.60;99.90;;;;;;5022739;28;20046;-66
2024/02/28 07:49:18;;;;;;;8.68;3.72;;;7.60;99.90;;;;;;5029771;28;20049;-65
2024/02/28 07:51:45;;;;;;;7.68;4.88;;;7.60;99.90;;;;;;5021749;28;20504;-65
2024/02/28 07:54:12;;;;;;;5.18;3.38;;;7.70;99.90;;;;;;5020216;28;20505;-65
2024/02/28 07:56:39;;;;;;;6.40;3.35;;;7.70;99.90;;;;;;5024688;28;20045;-65
2024/02/28 07:59:06;;;;;;;5.30;4.18;;;7.70;99.90;;;;;;5022933;28;20053;-65
2024/02/28 08:01:33;;;;;;;11.75;3.42;;;7.80;99.90;;;;;;5023570;28;20045;-66
2024/02/28 08:04:01;;;;;;;8.40;3.60;;;7.80;99.90;;;;;;5023372;28;20692;-65
2024/02/28 08:06:29;;;;;;;6.82;3.45;;;7.80;99.90;;;;;;5023060;28;20064;-66
2024/02/28 08:08:56;;;;;;;6.43;3.53;;;7.90;99.90;;;;;;5023078;28;20658;-68
2024/02/28 08:11:23;;;;;;;6.93;3.78;;;7.90;99.90;;;;;;5024379;28;20049;-66
2024/02/28 08:13:51;;;;;;;7.95;3.35;;;7.90;99.90;;;;;;5024467;28;20046;-66
2024/02/28 08:16:17;;;;;;;7.45;3.40;;;8.00;99.90;;;;;;5024904;28;20275;-66
2024/02/28 08:18:44;;;;;;;6.55;2.83;;;8.00;99.90;;;;;;5039571;28;20111;-66
2024/02/28 08:21:11;;;;;;;6.18;2.28;;;8.10;99.90;;;;;;5030040;28;20061;-66
2024/02/28 08:23:38;;;;;;;4.13;2.63;;;8.20;99.90;;;;;;5022295;28;20497;-66
2024/02/28 08:26:05;;;;;;;11.02;2.63;;;8.20;99.90;;;;;;5022345;28;20049;-66
2024/02/28 08:28:32;;;;;;;8.75;2.95;;;8.30;99.90;;;;;;5023295;28;20500;-65
2024/02/28 08:30:59;;;;;;;6.13;3.22;;;8.30;99.90;;;;;;5029994;28;20150;-66
2024/02/28 08:33:26;;;;;;;6.07;3.25;;;8.40;99.90;;;;;;5025460;28;20488;-67
2024/02/28 08:35:53;;;;;;;7.30;3.03;;;8.40;99.90;;;;;;5024539;28;20052;-66
2024/02/28 08:38:20;;;;;;;6.88;3.22;;;8.50;99.90;;;;;;4676355;28;10000636;-66
2024/02/28 08:40:47;;;;;;;11.68;3.45;;;8.50;99.90;;;;;;5025575;28;20045;-65
2024/02/28 08:43:14;;;;;;;7.75;3.90;;;8.50;99.90;;;;;;5023625;28;20050;-65
2024/02/28 08:45:41;;;;;;;9.20;3.30;;;8.50;99.90;;;;;;5024372;28;20536;-65
2024/02/28 08:48:08;;;;;;;8.57;4.45;;;8.50;99.90;;;;;;5017171;28;20385;-65
2024/02/28 08:50:35;;;;;;;9.32;5.35;;;8.50;99.90;;;;;;5024759;28;20046;-67
2024/02/28 08:53:03;;;;;;;10.02;5.15;;;8.60;99.90;;;;;;5026259;28;20042;-66
2024/02/28 08:55:30;;;;;;;11.48;4.78;;;8.60;99.90;;;;;;5024079;28;20111;-65
2024/02/28 08:57:57;;;;;;;8.77;4.65;;;8.70;99.90;;;;;;5021321;28;20072;-65
2024/02/28 09:00:25;;;;;;;7.93;3.83;;;8.70;99.90;;;;;;5021203;28;20512;-67
2024/02/28 09:02:52;;;;;;;11.35;5.53;;;8.70;99.90;;;;;;5019679;28;20041;-66
2024/02/28 09:05:19;;;;;;;7.45;4.38;;;8.80;99.90;;;;;;5033461;28;20056;-65
2024/02/28 09:07:50;;;;;;;9.27;5.07;;;8.90;99.90;;;;;;5018193;28;20049;-65
2024/02/28 09:10:23;;;;;;;11.40;5.35;;;8.90;99.90;;;;;;5014527;28;20055;-65
2024/02/28 09:12:51;;;;;;;10.93;6.07;;;9.00;99.90;;;;;;5016509;28;20057;-64
2024/02/28 09:15:18;;;;;;;7.97;4.60;;;9.00;99.90;;;;;;5019602;28;20124;-65
2024/02/28 09:17:45;;;;;;;10.80;4.68;;;9.10;99.90;;;;;;5015568;28;20137;-65
2024/02/28 09:20:12;;;;;;;16.58;6.03;;;9.10;99.90;;;;;;5025532;28;20045;-66
2024/02/28 09:22:39;;;;;;;15.20;5.55;;;9.10;99.90;;;;;;5025352;28;20053;-66
2024/02/28 09:25:08;;;;;;;10.35;5.43;;;9.20;99.90;;;;;;5022508;28;20136;-66
2024/02/28 09:27:36;;;;;;;10.48;5.85;;;9.20;99.90;;;;;;5013476;28;20077;-66
2024/02/28 09:30:03;;;;;;;11.32;5.75;;;9.30;99.90;;;;;;5026455;28;20046;-68
2024/02/28 09:32:30;;;;;;;7.57;5.80;;;9.30;99.90;;;;;;5026957;28;20558;-67
2024/02/28 09:34:57;;;;;;;10.25;6.50;;;9.40;99.90;;;;;;5029151;28;20111;-67
2024/02/28 09:37:24;;;;;;;17.30;7.95;;;9.40;99.90;;;;;;5027555;28;20037;-66
2024/02/28 09:39:52;;;;;;;13.95;7.13;;;9.50;99.90;;;;;;5028648;28;20140;-66
2024/02/28 09:42:19;;;;;;;10.73;7.20;;;9.50;99.90;;;;;;5027374;28;20072;-67
2024/02/28 09:44:47;;;;;;;9.05;5.05;;;9.50;99.90;;;;;;5028618;28;20057;-67
2024/02/28 09:47:14;;;;;;;9.73;5.35;;;9.50;99.90;;;;;;5028597;28;20041;-65
2024/02/28 09:49:42;;;;;;;7.88;4.65;;;9.50;99.90;;;;;;5028169;28;20053;-66
2024/02/28 09:52:09;;;;;;;7.90;4.68;;;9.60;99.90;;;;;;5030208;28;20057;-69
2024/02/28 09:54:36;;;;;;;5.43;3.72;;;9.60;99.90;;;;;;5028061;28;20133;-66
2024/02/28 09:57:04;;;;;;;7.75;4.68;;;9.60;99.90;;;;;;5029048;28;20133;-66
2024/02/28 09:59:30;;;;;;;6.00;4.00;;;9.60;99.90;;;;;;5035385;28;20046;-68
2024/02/28 10:02:13;;;;;;;8.48;4.35;;;9.70;99.90;;;;;;5023251;28;20049;-67
2024/02/28 10:04:39;;;;;;;8.85;4.22;;;9.70;99.90;;;;;;5025025;28;20115;-65
2024/02/28 10:07:13;;;;;;;10.15;4.75;;;9.70;99.90;;;;;;5028890;28;20045;-65
2024/02/28 10:09:43;;;;;;;6.50;3.38;;;9.80;99.90;;;;;;5031459;28;20053;-65
2024/02/28 10:12:10;;;;;;;4.40;3.22;;;9.70;99.90;;;;;;5028985;28;20111;-65
2024/02/28 10:14:38;;;;;;;5.05;3.25;;;9.80;99.90;;;;;;5028472;28;20045;-65
2024/02/28 10:17:05;;;;;;;7.97;3.22;;;9.70;99.90;;;;;;5027062;28;20308;-66
2024/02/28 10:19:32;;;;;;;7.88;3.33;;;9.70;99.90;;;;;;5027411;28;20119;-65
2024/02/28 10:21:59;;;;;;;5.60;2.60;;;9.80;99.90;;;;;;5028331;28;20050;-66
2024/02/28 10:24:26;;;;;;;6.65;2.78;;;9.80;99.90;;;;;;5026376;28;20099;-66
2024/02/28 10:26:56;;;;;;;4.75;3.40;;;9.80;99.90;;;;;;5025156;28;20049;-65
2024/02/28 10:29:28;;;;;;;6.75;3.63;;;9.80;99.90;;;;;;5018314;28;20051;-65
2024/02/28 10:31:58;;;;;;;8.93;2.70;;;9.90;99.90;;;;;;5024809;28;20057;-67
2024/02/28 10:34:25;;;;;;;5.25;2.95;;;9.90;99.90;;;;;;5026900;28;20566;-66
2024/02/28 10:36:52;;;;;;;10.60;2.47;;;10.00;99.90;;;;;;5026384;28;20053;-66
2024/02/28 10:39:19;;;;;;;5.95;2.38;;;10.00;99.90;;;;;;5025950;28;20351;-66
2024/02/28 10:41:47;;;;;;;4.88;2.67;;;10.00;99.90;;;;;;5007570;28;20157;-66
2024/02/28 10:44:14;;;;;;;6.30;4.30;;;10.10;99.90;;;;;;5027836;28;20049;-66
2024/02/28 10:46:41;;;;;;;7.78;2.78;;;10.10;99.90;;;;;;5023920;28;20088;-65
2024/02/28 10:49:09;;;;;;;3.67;2.15;;;10.20;99.90;;;;;;5026554;28;20325;-66
2024/02/28 10:51:39;;;;;;;4.68;2.47;;;10.20;99.90;;;;;;5022995;28;20042;-66
2024/02/28 10:54:13;;;;;;;5.00;2.47;;;10.30;99.90;;;;;;5020365;28;20045;-65
2024/02/28 10:56:42;;;;;;;4.35;1.75;;;10.40;99.90;;;;;;5023363;28;20057;-67
2024/02/28 10:59:10;;;;;;;6.88;2.47;;;10.40;99.90;;;;;;5026258;28;20049;-65
2024/02/28 11:01:44;;;;;;;9.75;2.55;;;10.40;99.90;;;;;;5025972;28;20103;-66
2024/02/28 11:04:12;;;;;;;8.15;2.05;;;10.40;99.90;;;;;;5025625;28;20095;-66
2024/02/28 11:06:54;;;;;;;7.72;2.72;;;10.50;99.90;;;;;;5022935;28;20418;-66
2024/02/28 11:09:32;;;;;;;8.40;1.48;;;10.50;99.90;;;;;;5028770;28;20575;-66
2024/02/28 11:11:59;;;;;;;5.28;1.73;;;10.60;99.90;;;;;;5027449;28;20441;-66
2024/02/28 11:14:26;;;;;;;5.72;2.10;;;10.60;99.90;;;;;;5024053;28;20044;-66
2024/02/28 11:17:04;;;;;;;5.78;1.60;;;10.70;99.90;;;;;;5009620;28;20062;-66
2024/02/28 11:19:32;;;;;;;5.85;1.50;;;10.70;99.90;;;;;;5023829;28;20049;-66
2024/02/28 11:22:01;;;;;;;8.18;1.98;;;10.80;99.90;;;;;;5025089;28;20053;-66
2024/02/28 11:24:32;;;;;;;6.65;1.70;;;10.80;99.90;;;;;;5027549;28;20201;-66
2024/02/28 11:27:02;;;;;;;5.15;1.40;;;10.90;99.90;;;;;;5025595;28;20393;-66
2024/02/28 11:29:29;;;;;;;3.80;1.55;;;11.00;99.90;;;;;;5019582;28;20048;-66
2024/02/28 11:31:56;;;;;;;8.82;1.77;;;11.00;99.90;;;;;;5025121;28;20068;-66
2024/02/28 11:34:23;;;;;;;5.20;1.80;;;11.00;99.90;;;;;;5031074;28;20037;-66
2024/02/28 11:36:50;;;;;;;11.10;1.52;;;11.00;99.90;;;;;;5025685;28;20060;-65
2024/02/28 11:39:18;;;;;;;6.25;1.77;;;11.00;99.90;;;;;;5024500;28;20072;-65
2024/02/28 11:41:46;;;;;;;6.53;2.47;;;11.10;99.90;;;;;;5029627;28;20041;-65
2024/02/28 11:44:14;;;;;;;4.25;1.55;;;11.20;99.90;;;;;;5022804;28;20072;-66
2024/02/28 11:46:48;;;;;;;6.43;1.60;;;11.20;99.90;;;;;;5024250;28;20107;-65
2024/02/28 11:49:15;;;;;;;;;;;11.30;99.90;;;;;;5019897;28;20050;-65
2024/02/28 11:51:42;;;;;;;5.63;1.10;;;11.30;99.90;;;;;;5022601;28;20325;-66
2024/02/28 11:54:12;;;;;;;10.45;1.45;;;11.40;99.90;;;;;;5011899;28;20107;-67
2024/02/28 11:56:40;;;;;;;3.42;1.65;;;11.50;99.90;;;;;;5025297;28;20057;-65
2024/02/28 11:59:08;;;;;;;7.57;1.70;;;11.60;99.90;;;;;;5023493;28;20049;-66
2024/02/28 12:01:44;;;;;;;9.23;2.03;;;11.80;99.90;;;;;;5024608;28;20624;-67
2024/02/28 12:04:11;;;;;;;3.97;1.40;;;11.90;99.90;;;;;;5026544;28;20053;-65
2024/02/28 12:06:39;;;;;;;4.97;1.60;;;12.00;99.90;;;;;;5027044;28;20136;-65
2024/02/28 12:09:08;;;;;;;9.38;1.83;;;11.90;99.90;;;;;;5026707;28;20044;-66
2024/02/28 12:11:36;;;;;;;2.58;1.05;;;12.00;99.90;;;;;;5023143;28;20050;-65
2024/02/28 12:14:04;;;;;;;5.25;1.30;;;12.10;99.90;;;;;;5026941;28;20041;-67
2024/02/28 12:16:31;;;;;;;5.38;1.30;;;12.20;99.90;;;;;;5025215;28;20080;-65
2024/02/28 12:18:58;;;;;;;2.80;1.30;;;12.10;99.90;;;;;;5023989;28;20083;-66
2024/02/28 12:21:25;;;;;;;4.90;1.65;;;12.10;99.90;;;;;;5029775;28;20073;-65
2024/02/28 12:23:52;;;;;;;8.93;2.22;;;12.00;99.90;;;;;;5024926;28;20116;-65
2024/02/28 12:26:20;;;;;;;5.50;1.50;;;12.10;99.90;;;;;;5025606;28;20103;-66
2024/02/28 12:28:47;;;;;;;6.63;2.17;;;12.00;99.90;;;;;;5027366;28;20143;-66
2024/02/28 12:31:14;;;;;;;6.63;1.45;;;12.00;99.90;;;;;;5028288;28;20053;-66
2024/02/28 12:33:42;;;;;;;4.03;1.15;;;12.00;99.90;;;;;;5011116;28;20048;-66
2024/02/28 12:36:09;;;;;;;3.95;1.17;;;12.00;99.90;;;;;;5021804;28;20128;-66
2024/02/28 12:38:36;;;;;;;6.68;1.10;;;11.90;99.90;;;;;;5034519;28;20045;-66
2024/02/28 12:41:03;;;;;;;13.07;2.22;;;12.00;99.90;;;;;;5024087;28;20049;-66
2024/02/28 12:43:31;;;;;;;9.23;1.85;;;12.10;99.90;;;;;;5024980;28;20544;-66
2024/02/28 12:45:59;;;;;;;8.98;1.35;;;12.10;99.90;;;;;;5024503;28;20228;-66
2024/02/28 12:48:28;;;;;;;6.43;1.50;;;12.10;99.90;;;;;;5022359;28;20103;-66
2024/02/28 12:50:55;;;;;;;7.70;1.73;;;12.10;99.90;;;;;;5011158;28;20318;-65
2024/02/28 12:53:22;;;;;;;49.88;26.27;;;12.10;99.90;;;;;;5024850;28;20065;-66
2024/02/28 12:55:48;;;;;;;1999.90;624.70;;;12.10;99.90;;;;;;5022288;28;20496;-66